Time;durP1;ratioP1;P1;durP2;ratioP2;P2;SDS_P1;SDS_P2;PMS_P1;PMS_P2;Temp;Humidity;BMP_temperature;BMP_pressure;BME280_temperature;BME280_humidity;BME280_pressure;Samples;Min_cycle;Max_cycle;Signal;HPM_P1;HPM_P2
2021/04/11 00:00:15;;;;;;;10.35;5.53;;;;;;;8.26;70.17;96159.31;5042495;28;20041;-64
2021/04/11 00:02:41;;;;;;;10.85;6.47;;;;;;;7.84;72.05;96160.16;5046877;28;20048;-64
2021/04/11 00:05:07;;;;;;;15.50;6.55;;;;;;;7.39;74.39;96158.91;5042463;28;20040;-62
2021/04/11 00:07:33;;;;;;;16.02;7.68;;;;;;;7.23;75.22;96159.75;5038518;28;20049;-63
2021/04/11 00:09:58;;;;;;;12.05;6.80;;;;;;;7.11;75.84;96153.66;5038621;28;20041;-65
2021/04/11 00:12:24;;;;;;;20.50;8.00;;;;;;;7.09;76.51;96162.19;5038742;28;20505;-64
2021/04/11 00:14:49;;;;;;;14.50;7.70;;;;;;;7.03;76.00;96155.44;5043804;28;20057;-64
2021/04/11 00:17:15;;;;;;;12.30;7.72;;;;;;;7.07;75.65;96154.34;5039086;28;20056;-64
2021/04/11 00:19:40;;;;;;;9.02;6.60;;;;;;;7.13;75.31;96148.63;5034620;28;20494;-64
2021/04/11 00:22:06;;;;;;;12.23;7.00;;;;;;;7.11;75.37;96151.72;5030877;28;20099;-64
2021/04/11 00:24:32;;;;;;;11.20;5.78;;;;;;;7.09;75.77;96143.13;5036751;28;20132;-64
2021/04/11 00:26:57;;;;;;;10.45;5.93;;;;;;;7.15;75.62;96143.63;5040344;28;20438;-63
2021/04/11 00:29:23;;;;;;;13.73;6.82;;;;;;;7.27;75.31;96135.31;5032463;28;20851;-62
2021/04/11 00:31:48;;;;;;;11.10;5.20;;;;;;;7.40;74.73;96133.22;5023757;28;20038;-63
2021/04/11 00:34:14;;;;;;;14.27;5.90;;;;;;;7.47;73.74;96139.63;5019478;28;20045;-64
2021/04/11 00:36:39;;;;;;;10.93;6.38;;;;;;;7.64;73.47;96137.59;5027186;28;20402;-63
2021/04/11 00:39:05;;;;;;;13.10;5.82;;;;;;;7.70;72.83;96138.84;5037982;28;20040;-61
2021/04/11 00:41:42;;;;;;;10.65;5.65;;;;;;;7.86;73.22;96136.03;5036005;28;20030;-64
2021/04/11 00:44:08;;;;;;;12.82;6.55;;;;;;;7.98;72.36;96133.13;5025702;28;20072;-62
2021/04/11 00:46:54;;;;;;;14.57;7.25;;;;;;;8.09;72.64;96133.31;5028101;28;20136;-64
2021/04/11 00:49:26;;;;;;;11.95;6.68;;;;;;;8.08;72.06;96120.03;5035416;28;20045;-65
2021/04/11 00:51:51;;;;;;;10.18;5.70;;;;;;;7.97;72.23;96112.47;5049213;28;20037;-65
2021/04/11 00:54:17;;;;;;;11.43;6.05;;;;;;;7.89;72.15;96123.63;5043522;28;20044;-65
2021/04/11 00:56:42;;;;;;;9.00;5.75;;;;;;;7.85;72.84;96124.34;5046210;28;20044;-63
2021/04/11 00:59:09;;;;;;;14.57;6.07;;;;;;;7.93;72.02;96122.53;5037286;28;20444;-63
2021/04/11 01:01:37;;;;;;;12.02;5.90;;;;;;;7.68;72.53;96121.31;5043121;28;20052;-64
2021/04/11 01:04:08;;;;;;;10.55;6.30;;;;;;;7.64;72.91;96121.22;5037975;28;20478;-61
2021/04/11 01:06:38;;;;;;;9.65;5.82;;;;;;;7.72;73.27;96113.97;5041497;28;20110;-66
2021/04/11 01:09:28;;;;;;;15.10;5.97;;;;;;;7.65;73.38;96114.63;5039087;28;20135;-62
2021/04/11 01:11:57;;;;;;;11.52;6.05;;;;;;;7.66;73.82;96116.97;5051059;28;20076;-64
2021/04/11 01:14:23;;;;;;;14.73;5.93;;;;;;;7.56;74.51;96105.88;5045051;28;20399;-65
2021/04/11 01:16:49;;;;;;;13.80;5.60;;;;;;;7.64;73.98;96113.84;5043695;28;20041;-66
2021/04/11 01:19:23;;;;;;;12.85;6.03;;;;;;;7.65;74.40;96114.63;5036822;28;20032;-63
2021/04/11 01:22:15;;;;;;;10.48;5.68;;;;;;;7.63;73.76;96114.19;5044707;28;20036;-64
2021/04/11 01:24:53;;;;;;;9.40;5.68;;;;;;;7.51;74.17;96117.06;5029666;28;20111;-62
2021/04/11 01:27:22;;;;;;;13.90;6.65;;;;;;;7.43;75.36;96113.44;5031582;28;20038;-62
2021/04/11 01:29:51;;;;;;;10.47;5.83;;;;;;;7.21;76.37;96110.31;5034329;28;20068;-65
2021/04/11 01:32:16;;;;;;;11.68;6.55;;;;;;;7.20;75.90;96106.00;5027753;28;20125;-64
2021/04/11 01:34:42;;;;;;;10.48;6.30;;;;;;;7.14;75.93;96096.53;5022455;28;20073;-64
2021/04/11 01:37:10;;;;;;;12.55;6.68;;;;;;;7.07;76.00;96099.91;5019712;28;20368;-63
2021/04/11 01:39:40;;;;;;;11.38;6.50;;;;;;;7.00;76.68;96101.69;5039829;28;20045;-64
2021/04/11 01:42:06;;;;;;;;;;;;;;;7.03;76.49;96103.72;5022666;28;20525;-65
2021/04/11 01:44:34;;;;;;;10.18;6.30;;;;;;;7.05;77.02;96095.97;5035075;28;19955;-65
2021/04/11 01:47:00;;;;;;;11.63;6.00;;;;;;;7.13;76.61;96091.44;5037163;28;20789;-64
2021/04/11 01:49:26;;;;;;;11.15;6.28;;;;;;;7.19;76.19;96084.59;5030617;28;20131;-62
2021/04/11 01:51:58;;;;;;;15.60;6.88;;;;;;;7.20;76.18;96094.31;5043904;28;20067;-64
2021/04/11 01:54:28;;;;;;;10.43;5.47;;;;;;;7.25;75.38;96100.25;5039222;28;20068;-64
2021/04/11 01:56:54;;;;;;;9.57;4.20;;;;;;;7.03;76.02;96096.31;5041895;28;20041;-63
2021/04/11 01:59:24;;;;;;;9.82;5.70;;;;;;;6.82;76.90;96113.00;5037346;28;20068;-62
2021/04/11 02:01:51;;;;;;;12.25;5.72;;;;;;;6.71;77.39;96106.53;5048578;28;20131;-67
2021/04/11 02:04:18;;;;;;;13.80;6.13;;;;;;;6.72;77.87;96099.16;5036224;28;20033;-64
2021/04/11 02:06:47;;;;;;;29.42;11.90;;;;;;;6.75;77.59;96096.50;5042293;28;20041;-63
2021/04/11 02:09:18;;;;;;;13.88;7.57;;;;;;;6.74;77.72;96097.66;5035315;28;20041;-65
2021/04/11 02:11:45;;;;;;;11.57;6.60;;;;;;;6.65;77.81;96097.88;5041530;28;20068;-64
2021/04/11 02:14:12;;;;;;;10.23;6.10;;;;;;;6.63;78.51;96102.88;5036060;28;20513;-65
2021/04/11 02:16:37;;;;;;;16.90;6.30;;;;;;;6.64;78.35;96095.50;5042769;28;20040;-65
2021/04/11 02:19:23;;;;;;;8.80;5.40;;;;;;;6.70;78.46;96094.09;5039233;28;20044;-61
2021/04/11 02:21:58;;;;;;;14.30;6.13;;;;;;;6.86;78.28;96094.00;5026145;28;20137;-63
2021/04/11 02:24:24;;;;;;;11.80;6.32;;;;;;;6.92;77.52;96095.31;5018199;28;20056;-63
2021/04/11 02:26:49;;;;;;;11.18;6.20;;;;;;;6.97;77.54;96096.97;5021837;28;20038;-64
2021/04/11 02:29:18;;;;;;;9.52;5.80;;;;;;;6.94;77.59;96092.25;5021006;28;20124;-64
2021/04/11 02:31:44;;;;;;;10.73;6.13;;;;;;;6.93;77.45;96086.00;5042668;28;20033;-61
2021/04/11 02:34:28;;;;;;;10.40;5.53;;;;;;;6.97;77.58;96086.88;5036094;28;20052;-63
2021/04/11 02:37:05;;;;;;;10.98;5.88;;;;;;;6.92;75.81;96087.16;5038980;28;20441;-64
2021/04/11 02:39:35;;;;;;;11.13;5.93;;;;;;;6.92;76.06;96087.16;5017972;28;20620;-63
2021/04/11 02:42:04;;;;;;;8.77;4.82;;;;;;;6.81;76.54;96084.22;5026004;28;20056;-62
2021/04/11 02:44:37;;;;;;;12.38;6.00;;;;;;;6.74;77.37;96089.50;5031480;28;20127;-63
2021/04/11 02:47:04;;;;;;;10.75;5.68;;;;;;;6.72;77.77;96093.72;5028643;28;20128;-60
2021/04/11 02:49:31;;;;;;;7.32;4.93;;;;;;;6.71;78.26;96084.78;5020154;28;20037;-62
2021/04/11 02:52:01;;;;;;;12.80;5.70;;;;;;;6.70;77.46;96089.44;5020118;28;20449;-63
2021/04/11 02:54:29;;;;;;;12.45;5.32;;;;;;;6.75;77.40;96088.34;5015966;28;20569;-62
2021/04/11 02:56:54;;;;;;;9.25;4.72;;;;;;;6.72;76.76;96085.53;5020792;28;20049;-64
2021/04/11 02:59:20;;;;;;;9.18;5.10;;;;;;;6.81;76.54;96097.81;5015902;28;20141;-64
2021/04/11 03:01:49;;;;;;;8.50;5.10;;;;;;;6.89;75.82;96085.91;5020368;28;20101;-63
2021/04/11 03:04:18;;;;;;;10.20;5.07;;;;;;;6.85;75.50;96087.00;5015303;28;20560;-62
2021/04/11 03:06:58;;;;;;;9.77;5.05;;;;;;;7.14;74.82;96079.41;5020562;28;20051;-63
2021/04/11 03:09:30;;;;;;;9.75;5.40;;;;;;;6.88;75.68;96072.69;5016975;28;20033;-63
2021/04/11 03:11:57;;;;;;;7.32;5.45;;;;;;;6.99;75.91;96075.63;5021787;28;20057;-64
2021/04/11 03:14:28;;;;;;;8.93;5.88;;;;;;;7.11;75.07;96072.75;5014687;28;20049;-64
2021/04/11 03:16:55;;;;;;;8.88;5.18;;;;;;;7.05;74.84;96069.53;5020761;28;20033;-63
2021/04/11 03:19:28;;;;;;;10.65;5.15;;;;;;;7.13;75.73;96067.75;5015079;28;20052;-64
2021/04/11 03:21:53;;;;;;;8.38;5.22;;;;;;;7.04;75.74;96072.59;5037196;28;20043;-64
2021/04/11 03:24:19;;;;;;;13.10;5.35;;;;;;;6.94;76.71;96073.19;5034319;28;20060;-65
2021/04/11 03:27:03;;;;;;;9.38;5.80;;;;;;;6.88;76.19;96067.25;5040671;28;20513;-65
2021/04/11 03:29:35;;;;;;;10.63;5.57;;;;;;;6.79;76.72;96072.09;5028992;28;20052;-65
2021/04/11 03:32:08;;;;;;;11.10;5.30;;;;;;;6.54;77.29;96074.31;5020813;28;20049;-64
2021/04/11 03:34:34;;;;;;;14.32;5.80;;;;;;;6.57;77.34;96065.41;5019513;28;20079;-63
2021/04/11 03:37:05;;;;;;;9.93;4.82;;;;;;;6.51;76.42;96060.25;5031569;28;20069;-64
2021/04/11 03:39:35;;;;;;;9.85;5.63;;;;;;;6.46;76.70;96059.75;5033497;28;20052;-63
2021/04/11 03:42:07;;;;;;;10.13;5.18;;;;;;;6.48;76.70;96062.88;5027155;28;20140;-64
2021/04/11 03:44:33;;;;;;;12.20;5.28;;;;;;;6.48;77.67;96060.97;5031985;28;20077;-64
2021/04/11 03:47:04;;;;;;;12.93;5.45;;;;;;;6.36;78.45;96061.09;5039185;28;20037;-65
2021/04/11 03:49:40;;;;;;;8.30;5.55;;;;;;;6.30;78.20;96059.78;5043873;28;20052;-64
2021/04/11 03:52:15;;;;;;;11.50;5.75;;;;;;;6.31;79.20;96064.84;5051134;28;20041;-65
2021/04/11 03:54:43;;;;;;;8.40;4.82;;;;;;;6.30;77.33;96062.50;5040274;28;20052;-66
2021/04/11 03:57:23;;;;;;;10.20;5.20;;;;;;;6.39;76.59;96059.56;5036018;28;20434;-62
2021/04/11 04:00:11;;;;;;;8.07;4.72;;;;;;;6.36;76.67;96057.59;5024849;28;20080;-65
2021/04/11 04:02:41;;;;;;;10.35;5.63;;;;;;;6.32;76.69;96061.00;5022720;28;20137;-64
2021/04/11 04:05:10;;;;;;;9.75;5.18;;;;;;;6.38;76.09;96063.47;5019244;28;20033;-63
2021/04/11 04:07:46;;;;;;;9.80;5.40;;;;;;;6.40;76.28;96061.94;5023032;28;20065;-63
2021/04/11 04:10:14;;;;;;;9.30;5.32;;;;;;;6.45;75.08;96060.91;5027730;28;20378;-63
2021/04/11 04:12:53;;;;;;;8.57;5.35;;;;;;;6.58;75.10;96056.13;5023294;28;20091;-62
2021/04/11 04:15:37;;;;;;;11.15;5.60;;;;;;;6.62;74.36;96060.47;5018061;28;20044;-63
2021/04/11 04:18:25;;;;;;;8.73;5.10;;;;;;;6.64;74.28;96066.34;5018904;28;20124;-60
2021/04/11 04:20:59;;;;;;;10.18;5.45;;;;;;;6.62;74.40;96059.69;5023578;28;20072;-65
2021/04/11 04:23:45;;;;;;;8.20;4.75;;;;;;;6.62;74.46;96054.25;5020237;28;20092;-64
2021/04/11 04:26:34;;;;;;;11.00;6.70;;;;;;;6.59;74.59;96054.97;5025655;28;20097;-64
2021/04/11 04:29:03;;;;;;;7.85;5.05;;;;;;;6.62;74.37;96057.75;5026199;28;20044;-66
2021/04/11 04:31:52;;;;;;;8.95;4.97;;;;;;;6.65;74.60;96059.00;5040104;28;20048;-63
2021/04/11 04:34:40;;;;;;;15.35;12.02;;;;;;;6.65;73.73;96053.53;5037668;28;20040;-62
2021/04/11 04:37:15;;;;;;;8.82;5.75;;;;;;;6.70;74.79;96051.31;5003010;28;20037;-61
2021/04/11 04:39:48;;;;;;;8.38;4.93;;;;;;;6.82;74.91;96057.78;5043050;28;20544;-65
2021/04/11 04:42:26;;;;;;;9.55;4.85;;;;;;;6.76;73.02;96057.28;5036893;28;20055;-64
2021/04/11 04:45:05;;;;;;;9.63;4.95;;;;;;;6.75;73.16;96063.06;5031909;28;20045;-64
2021/04/11 04:47:42;;;;;;;7.28;4.70;;;;;;;6.82;73.64;96055.84;5035851;28;20143;-65
2021/04/11 04:50:26;;;;;;;8.68;4.75;;;;;;;6.98;72.88;96050.31;5037355;28;20091;-63
2021/04/11 04:53:06;;;;;;;9.50;4.65;;;;;;;7.04;72.41;96048.09;5041043;28;20041;-66
2021/04/11 04:55:34;;;;;;;9.65;5.28;;;;;;;6.82;71.91;96050.38;5042394;28;20076;-65
2021/04/11 04:58:25;;;;;;;8.38;4.50;;;;;;;6.75;72.67;96044.03;5033097;28;20049;-65
2021/04/11 05:00:55;;;;;;;10.35;4.55;;;;;;;6.80;72.74;96054.63;5030838;28;20048;-64
2021/04/11 05:03:35;;;;;;;6.75;4.25;;;;;;;6.94;73.05;96049.47;5022504;28;20532;-63
2021/04/11 05:06:14;;;;;;;9.27;4.70;;;;;;;7.06;73.30;96040.38;5043379;28;20144;-64
2021/04/11 05:08:40;;;;;;;;;;;;;;;7.19;72.75;96049.97;5042130;28;20179;-64
2021/04/11 05:11:18;;;;;;;8.37;4.90;;;;;;;7.39;71.69;96052.66;5037964;28;19943;-62
2021/04/11 05:13:53;;;;;;;7.78;4.18;;;;;;;7.43;71.87;96054.28;5041836;28;20037;-65
2021/04/11 05:16:28;;;;;;;8.20;5.65;;;;;;;7.50;72.18;96052.84;5022458;28;20037;-65
2021/04/11 05:19:07;;;;;;;10.13;4.47;;;;;;;7.32;72.65;96050.56;5041211;28;20040;-65
2021/04/11 05:21:37;;;;;;;7.85;4.30;;;;;;;7.26;73.21;96052.81;5042259;28;20048;-66
2021/04/11 05:24:15;;;;;;;7.75;4.57;;;;;;;7.35;74.80;96046.38;5040972;28;20513;-62
2021/04/11 05:27:08;;;;;;;7.78;4.60;;;;;;;7.41;74.30;96045.69;5043229;28;20401;-64
2021/04/11 05:29:52;;;;;;;8.88;5.15;;;;;;;7.40;73.33;96038.69;5030539;28;20049;-65
2021/04/11 05:32:18;;;;;;;7.85;4.72;;;;;;;7.39;73.84;96041.75;5026842;28;20044;-64
2021/04/11 05:34:43;;;;;;;11.35;5.25;;;;;;;7.64;72.27;96040.25;5023609;28;20041;-62
2021/04/11 05:37:36;;;;;;;8.07;5.03;;;;;;;7.73;72.38;96044.69;5020298;28;20064;-64
2021/04/11 05:40:24;;;;;;;6.53;4.35;;;;;;;7.94;71.79;96034.13;5033372;28;20040;-60
2021/04/11 05:43:04;;;;;;;9.70;5.38;;;;;;;8.00;71.87;96035.38;5033802;28;20110;-63
2021/04/11 05:45:59;;;;;;;13.82;6.43;;;;;;;8.06;71.30;96037.81;5035877;28;20525;-65
2021/04/11 05:48:54;;;;;;;10.27;5.10;;;;;;;8.12;71.61;96039.84;5003210;28;20140;-63
2021/04/11 05:51:38;;;;;;;7.88;4.68;;;;;;;8.07;71.33;96042.09;5011548;28;20072;-62
2021/04/11 05:54:20;;;;;;;7.50;4.90;;;;;;;8.21;70.73;96036.84;5034676;28;20041;-61
2021/04/11 05:56:54;;;;;;;10.18;4.93;;;;;;;8.35;70.02;96037.06;5022991;28;20052;-63
2021/04/11 05:59:39;;;;;;;7.57;4.93;;;;;;;8.35;69.63;96034.31;5020424;28;20056;-64
2021/04/11 06:02:09;;;;;;;9.02;5.22;;;;;;;8.36;70.23;96038.63;5028970;28;20102;-61
2021/04/11 06:04:41;;;;;;;9.02;5.15;;;;;;;8.34;69.38;96051.09;5041082;28;20037;-62
2021/04/11 06:07:28;;;;;;;7.45;5.00;;;;;;;8.46;69.78;96045.41;5030065;28;20038;-63
2021/04/11 06:10:21;;;;;;;14.25;4.60;;;;;;;8.38;70.32;96044.50;5025125;28;20041;-64
2021/04/11 06:13:00;;;;;;;7.97;5.07;;;;;;;8.38;69.96;96049.19;5019692;28;20045;-63
2021/04/11 06:15:29;;;;;;;8.83;5.20;;;;;;;8.62;69.52;96042.53;5016862;28;20050;-65
2021/04/11 06:17:56;;;;;;;;;;;;;;;8.71;68.61;96053.16;5022344;28;20642;-64
2021/04/11 06:20:23;;;;;;;11.43;4.93;;;;;;;8.77;67.37;96043.50;5029336;28;20460;-62
2021/04/11 06:23:10;;;;;;;10.48;4.78;;;;;;;8.96;67.61;96046.06;5037774;28;20067;-65
2021/04/11 06:25:58;;;;;;;8.35;5.35;;;;;;;9.33;66.69;96039.88;5041612;28;20140;-64
2021/04/11 06:28:48;;;;;;;8.73;4.95;;;;;;;9.54;66.54;96042.03;5040086;28;20048;-64
2021/04/11 06:31:21;;;;;;;14.05;9.27;;;;;;;8.72;69.59;96041.09;5021677;28;20371;-64
2021/04/11 06:33:49;;;;;;;8.77;5.63;;;;;;;8.97;69.63;96036.72;5023981;28;20048;-63
2021/04/11 06:36:24;;;;;;;12.43;5.78;;;;;;;9.33;69.41;96045.34;5025358;28;20040;-65
2021/04/11 06:39:01;;;;;;;14.27;7.53;;;;;;;9.46;68.89;96045.84;5039135;28;20040;-65
2021/04/11 06:42:00;;;;;;;15.18;10.18;;;;;;;9.50;68.48;96054.88;5034662;28;20045;-64
2021/04/11 06:45:03;;;;;;;16.25;10.50;;;;;;;9.72;68.14;96052.34;5028213;28;20113;-64
2021/04/11 06:47:47;;;;;;;23.83;10.50;;;;;;;9.73;68.06;96060.16;5034051;28;20037;-63
2021/04/11 06:50:26;;;;;;;16.65;8.52;;;;;;;9.80;67.10;96056.72;5031622;28;20040;-61
2021/04/11 06:53:25;;;;;;;16.95;6.20;;;;;;;9.71;67.51;96054.28;5031596;28;20644;-64
2021/04/11 06:56:19;;;;;;;8.90;4.75;;;;;;;9.99;66.17;96054.91;5040591;28;20049;-65
2021/04/11 06:58:49;;;;;;;9.00;4.60;;;;;;;10.41;64.57;96054.50;5040392;28;20033;-63
2021/04/11 07:01:53;;;;;;;7.93;4.60;;;;;;;10.67;63.80;96050.72;5035240;28;20498;-61
2021/04/11 07:04:33;;;;;;;6.88;4.35;;;;;;;10.98;62.97;96048.53;5034375;28;20501;-65
2021/04/11 07:07:49;;;;;;;10.98;5.03;;;;;;;11.29;61.29;96043.56;5022697;28;20038;-65
2021/04/11 07:10:35;;;;;;;9.18;5.00;;;;;;;11.55;59.81;96047.16;5016128;28;20046;-69
2021/04/11 07:13:15;;;;;;;10.60;5.50;;;;;;;11.80;59.70;96039.72;5022463;28;20049;-64
2021/04/11 07:16:05;;;;;;;9.15;4.55;;;;;;;11.82;59.23;96050.31;5022185;28;20046;-66
2021/04/11 07:18:39;;;;;;;;;;;;;;;12.05;58.64;96047.22;5024574;28;20060;-65
2021/04/11 07:21:17;;;;;;;11.32;6.22;;;;;;;12.16;59.08;96045.25;5036141;28;20275;-66
2021/04/11 07:24:07;;;;;;;8.95;4.80;;;;;;;11.99;59.72;96055.06;5045406;28;20040;-68
2021/04/11 07:26:35;;;;;;;7.07;4.00;;;;;;;12.68;57.81;96046.78;5044233;28;20075;-65
2021/04/11 07:29:22;;;;;;;9.32;4.40;;;;;;;13.17;56.86;96045.03;5044704;28;20506;-63
2021/04/11 07:32:02;;;;;;;8.73;4.55;;;;;;;13.51;55.00;96053.53;5035922;28;20486;-62
2021/04/11 07:34:27;;;;;;;6.53;4.05;;;;;;;13.98;53.85;96055.22;5025335;28;20502;-62
2021/04/11 07:36:59;;;;;;;9.00;4.50;;;;;;;14.24;52.93;96051.88;5024499;28;20041;-64
2021/04/11 07:39:41;;;;;;;5.93;3.58;;;;;;;14.30;52.71;96050.22;5016019;28;20099;-64
2021/04/11 07:42:28;;;;;;;11.13;4.50;;;;;;;13.91;52.52;96053.28;5022737;28;20470;-64
2021/04/11 07:45:09;;;;;;;6.68;3.83;;;;;;;13.64;53.42;96058.56;5035841;28;20147;-64
2021/04/11 07:48:12;;;;;;;6.45;3.75;;;;;;;13.99;51.75;96063.06;5041325;28;20517;-66
2021/04/11 07:50:51;;;;;;;5.70;4.20;;;;;;;14.57;50.74;96059.81;5027501;28;20045;-65
2021/04/11 07:53:40;;;;;;;8.45;3.85;;;;;;;14.86;49.44;96066.63;5034363;28;20042;-65
2021/04/11 07:56:43;;;;;;;6.15;3.50;;;;;;;15.91;45.69;96068.91;5019524;28;20140;-64
2021/04/11 07:59:24;;;;;;;7.95;3.20;;;;;;;15.39;46.71;96066.44;5000025;28;20043;-64
2021/04/11 08:02:17;;;;;;;5.65;3.17;;;;;;;15.61;44.98;96069.69;5038751;28;20034;-63
2021/04/11 08:05:10;;;;;;;8.18;3.50;;;;;;;14.78;47.23;96067.13;5027325;28;20048;-63
2021/04/11 08:07:57;;;;;;;4.82;2.92;;;;;;;15.32;45.93;96075.56;5038612;28;20255;-62
2021/04/11 08:10:50;;;;;;;6.45;2.95;;;;;;;15.63;44.25;96075.59;5024793;28;20045;-63
2021/04/11 08:13:44;;;;;;;5.35;3.53;;;;;;;15.64;43.25;96077.91;5018264;28;20486;-64
2021/04/11 08:16:29;;;;;;;5.68;2.50;;;;;;;15.78;43.29;96076.19;5017278;28;20054;-63
2021/04/11 08:19:22;;;;;;;5.88;2.95;;;;;;;15.70;43.51;96078.25;5030689;28;20076;-63
2021/04/11 08:22:00;;;;;;;5.63;2.67;;;;;;;15.00;45.27;96075.94;5032934;28;20393;-62
2021/04/11 08:24:45;;;;;;;4.68;3.10;;;;;;;15.41;44.08;96080.59;5038382;28;20131;-63
2021/04/11 08:27:34;;;;;;;4.85;2.80;;;;;;;15.26;44.79;96078.00;5038244;28;20072;-63
2021/04/11 08:30:06;;;;;;;6.45;3.28;;;;;;;15.41;44.49;96078.63;5032357;28;20128;-63
2021/04/11 08:32:59;;;;;;;4.45;2.80;;;;;;;15.60;43.97;96084.69;5022901;28;20041;-64
2021/04/11 08:35:24;;;;;;;8.85;4.43;;;;;;;15.93;43.80;96090.56;5043221;28;20620;-63
2021/04/11 08:38:21;;;;;;;84.50;33.25;;;;;;;15.94;43.45;96086.63;5036629;28;20045;-63
2021/04/11 08:41:17;;;;;;;10.32;5.00;;;;;;;15.94;43.09;96081.09;5043331;28;20037;-63
2021/04/11 08:43:48;;;;;;;7.00;2.75;;;;;;;16.05;43.46;96082.50;5028371;28;20036;-64
2021/04/11 08:46:33;;;;;;;5.88;2.95;;;;;;;15.63;44.05;96081.88;5021315;28;20094;-64
2021/04/11 08:49:01;;;;;;;3.92;2.40;;;;;;;15.95;43.04;96083.44;5042202;28;20045;-64
2021/04/11 08:51:42;;;;;;;4.38;2.53;;;;;;;15.88;42.83;96080.00;5033289;28;20041;-65
2021/04/11 08:54:26;;;;;;;8.05;3.40;;;;;;;15.83;43.25;96078.50;5017058;28;20045;-62
2021/04/11 08:57:38;;;;;;;9.15;2.33;;;;;;;16.05;41.59;96078.97;5023402;28;20048;-64
2021/04/11 09:00:23;;;;;;;4.32;2.40;;;;;;;16.31;41.21;96071.81;5005277;28;20079;-61
2021/04/11 09:03:35;;;;;;;4.80;2.13;;;;;;;16.66;39.95;96075.22;5023017;28;20044;-64
2021/04/11 09:06:26;;;;;;;4.90;2.50;;;;;;;16.91;39.86;96068.47;5034235;28;20102;-63
2021/04/11 09:09:10;;;;;;;7.90;3.50;;;;;;;16.54;40.95;96062.00;5042410;28;20033;-66
2021/04/11 09:11:47;;;;;;;4.25;2.20;;;;;;;16.67;40.61;96067.69;5042021;28;20048;-64
2021/04/11 09:14:37;;;;;;;5.28;1.95;;;;;;;16.96;37.79;96062.44;5038252;28;20060;-64
2021/04/11 09:17:15;;;;;;;;;;;;;;;17.91;36.17;96054.56;5040006;28;20045;-64
2021/04/11 09:19:41;;;;;;;5.28;1.50;;;;;;;19.00;34.07;96059.03;5038730;28;19927;-63
2021/04/11 09:22:14;;;;;;;3.50;1.27;;;;;;;19.75;31.62;96064.47;5024844;28;20045;-63
2021/04/11 09:25:01;;;;;;;3.47;1.45;;;;;;;19.40;32.32;96056.72;5027182;28;20072;-65
2021/04/11 09:27:48;;;;;;;2.30;1.38;;;;;;;19.70;32.07;96056.66;5030409;28;20091;-64
2021/04/11 09:30:32;;;;;;;3.90;1.30;;;;;;;19.89;31.40;96057.72;5031716;28;20045;-64
2021/04/11 09:33:25;;;;;;;5.07;1.88;;;;;;;19.55;31.39;96053.53;5031322;28;20441;-63
2021/04/11 09:36:05;;;;;;;4.32;1.42;;;;;;;19.54;32.21;96061.09;5038980;28;20045;-63
2021/04/11 09:39:18;;;;;;;7.28;2.17;;;;;;;19.64;31.48;96060.00;5032228;28;20113;-64
2021/04/11 09:42:24;;;;;;;7.72;1.30;;;;;;;18.71;32.34;96054.22;5020992;28;20498;-65
2021/04/11 09:45:18;;;;;;;1.95;1.33;;;;;;;18.31;34.01;96057.97;5033296;28;20643;-65
2021/04/11 09:48:11;;;;;;;4.22;1.50;;;;;;;18.23;33.87;96058.59;5031629;28;20049;-66
2021/04/11 09:50:47;;;;;;;5.88;1.50;;;;;;;17.72;35.10;96056.94;5025505;28;20045;-65
2021/04/11 09:53:40;;;;;;;10.85;2.10;;;;;;;17.57;37.08;96055.69;5016842;28;20505;-65
2021/04/11 09:56:15;;;;;;;7.72;2.22;;;;;;;17.93;36.59;96054.91;5015351;28;20045;-64
2021/04/11 09:59:11;;;;;;;3.90;2.15;;;;;;;18.03;36.69;96059.44;5025824;28;20528;-64
2021/04/11 10:02:07;;;;;;;4.28;2.00;;;;;;;18.48;36.59;96057.97;5037088;28;20048;-65
2021/04/11 10:05:02;;;;;;;3.20;1.70;;;;;;;18.64;35.96;96052.41;5029257;28;20057;-63
2021/04/11 10:07:34;;;;;;;3.92;2.08;;;;;;;18.62;36.23;96056.81;5022384;28;20049;-66
2021/04/11 10:10:25;;;;;;;6.53;2.42;;;;;;;18.45;35.65;96047.75;5040739;28;20032;-66
2021/04/11 10:13:09;;;;;;;4.90;1.80;;;;;;;18.48;35.34;96055.97;5017244;28;20041;-64
2021/04/11 10:15:56;;;;;;;3.92;1.92;;;;;;;19.09;33.89;96054.41;5040677;28;20041;-65
2021/04/11 10:18:55;;;;;;;4.43;2.05;;;;;;;19.17;34.77;96052.19;5028358;28;20686;-64
2021/04/11 10:21:43;;;;;;;6.88;2.17;;;;;;;18.93;35.19;96051.69;5016276;28;20092;-65
2021/04/11 10:24:15;;;;;;;7.15;2.00;;;;;;;19.74;33.84;96055.38;5016561;28;20033;-66
2021/04/11 10:26:46;;;;;;;3.92;1.90;;;;;;;19.71;33.54;96056.22;5021790;28;20124;-65
2021/04/11 10:29:17;;;;;;;6.30;2.22;;;;;;;19.95;33.07;96051.16;5021681;28;20083;-65
2021/04/11 10:32:05;;;;;;;3.60;1.90;;;;;;;19.50;34.05;96040.97;5039138;28;20052;-66
2021/04/11 10:35:10;;;;;;;6.20;1.63;;;;;;;20.22;32.48;96031.22;5026754;28;20494;-66
2021/04/11 10:37:41;;;;;;;4.05;1.50;;;;;;;20.86;31.43;96035.88;5024724;28;20097;-63
2021/04/11 10:40:25;;;;;;;2.88;1.70;;;;;;;20.84;31.44;96032.78;5026943;28;20037;-63
2021/04/11 10:42:50;;;;;;;3.65;1.63;;;;;;;20.95;31.47;96033.16;5039188;28;20041;-65
2021/04/11 10:45:21;;;;;;;3.00;1.75;;;;;;;21.29;31.36;96028.78;5029573;28;20040;-65
2021/04/11 10:48:09;;;;;;;6.05;1.90;;;;;;;21.34;30.93;96035.78;5024306;28;20219;-65
2021/04/11 10:50:46;;;;;;;4.03;1.65;;;;;;;21.51;30.40;96028.78;5031094;28;20041;-62
2021/04/11 10:53:15;;;;;;;3.17;1.70;;;;;;;19.49;33.52;96031.84;5030574;28;20099;-64
2021/04/11 10:56:04;;;;;;;4.15;1.80;;;;;;;20.51;31.58;96023.94;5029211;28;20049;-64
2021/04/11 10:58:55;;;;;;;;;;;;;;;20.50;30.64;96019.63;5023738;28;20713;-65
2021/04/11 11:01:21;;;;;;;3.05;1.10;;;;;;;21.33;28.93;96018.28;5029599;28;19925;-64
2021/04/11 11:04:17;;;;;;;5.17;1.30;;;;;;;21.14;28.71;96019.38;5038956;28;20049;-64
2021/04/11 11:07:38;;;;;;;2.67;1.08;;;;;;;21.28;28.01;96018.84;5026932;28;20293;-64
2021/04/11 11:10:38;;;;;;;2.03;1.10;;;;;;;21.43;26.62;96007.97;4993575;28;20048;-63
2021/04/11 11:13:45;;;;;;;3.78;3.40;;;;;;;20.89;27.18;96001.59;5037737;28;20502;-62
2021/04/11 11:16:40;;;;;;;4.97;1.35;;;;;;;21.26;26.92;96004.63;5016789;28;20081;-65
2021/04/11 11:19:09;;;;;;;2.35;0.80;;;;;;;19.61;29.66;96005.31;5020597;28;20044;-60
2021/04/11 11:21:55;;;;;;;1.70;0.98;;;;;;;19.54;28.43;96004.78;5036775;28;20048;-65
2021/04/11 11:24:58;;;;;;;2.05;0.75;;;;;;;20.40;27.71;96002.03;5013659;28;20064;-64
2021/04/11 11:27:52;;;;;;;0.90;0.60;;;;;;;18.69;29.53;95996.41;5029655;28;20884;-63
2021/04/11 11:30:20;;;;;;;2.15;0.70;;;;;;;18.56;30.11;95994.78;5030344;28;20079;-64
2021/04/11 11:33:02;;;;;;;1.48;0.70;;;;;;;18.81;30.46;95994.91;5020181;28;20077;-65
2021/04/11 11:35:28;;;;;;;1.80;0.60;;;;;;;20.11;27.56;95988.31;5017068;28;20099;-62
2021/04/11 11:38:14;;;;;;;2.55;0.68;;;;;;;20.69;27.73;95987.19;5027562;28;20051;-64
2021/04/11 11:40:49;;;;;;;1.42;0.68;;;;;;;21.17;26.79;95980.28;5040286;28;20095;-63
2021/04/11 11:43:38;;;;;;;1.30;0.73;;;;;;;21.38;28.11;95984.28;5030054;28;20040;-64
2021/04/11 11:46:50;;;;;;;3.03;0.80;;;;;;;21.37;28.28;95976.38;5034837;28;20033;-62
2021/04/11 11:49:26;;;;;;;2.75;1.10;;;;;;;20.24;30.39;95981.50;5013799;28;20043;-63
2021/04/11 11:52:08;;;;;;;3.00;0.95;;;;;;;20.09;29.92;95985.97;5040569;28;20044;-63
2021/04/11 11:54:46;;;;;;;1.15;0.60;;;;;;;19.78;30.34;95988.56;5031933;28;20052;-65
2021/04/11 11:57:36;;;;;;;3.93;1.07;;;;;;;19.31;30.01;95984.41;5028487;28;20041;-65
2021/04/11 12:00:10;;;;;;;2.60;0.70;;;;;;;19.44;30.11;95976.84;5040826;28;20033;-64
2021/04/11 12:03:13;;;;;;;4.00;0.77;;;;;;;19.29;30.24;95975.75;5038982;28;20062;-65
2021/04/11 12:06:03;;;;;;;3.28;1.00;;;;;;;19.39;31.52;95980.19;5020588;28;20045;-65
2021/04/11 12:08:32;;;;;;;2.75;1.10;;;;;;;19.41;32.01;95972.19;5026996;28;20059;-65
2021/04/11 12:11:04;;;;;;;6.85;1.08;;;;;;;19.31;31.39;95973.28;5026352;28;20481;-65
2021/04/11 12:13:34;;;;;;;3.13;0.90;;;;;;;19.37;31.76;95973.53;5041378;28;20072;-62
2021/04/11 12:16:03;;;;;;;3.03;0.80;;;;;;;19.22;32.33;95973.16;5032320;28;20840;-65
2021/04/11 12:18:55;;;;;;;3.92;1.13;;;;;;;18.96;32.15;95975.09;5021836;28;20800;-65
2021/04/11 12:21:23;;;;;;;2.63;1.10;;;;;;;19.13;33.00;95968.25;5018235;28;20041;-63
2021/04/11 12:24:12;;;;;;;2.97;1.00;;;;;;;18.96;32.65;95966.78;5034090;28;20104;-64
2021/04/11 12:26:46;;;;;;;4.80;1.15;;;;;;;18.84;31.90;95960.00;5030540;28;20132;-64
2021/04/11 12:29:13;;;;;;;1.45;0.90;;;;;;;18.47;33.23;95970.44;5027583;28;20153;-62